sensor_id;sensor_type;location;lat;lon;timestamp;P1;durP1;ratioP1;P2;durP2;ratioP2
51451;SDS011;37521;52.020;-1.740;2023-10-19T00:00:06;1.73;;;1.15;;
51451;SDS011;37521;52.020;-1.740;2023-10-19T00:02:49;0.93;;;0.80;;
51451;SDS011;37521;52.020;-1.740;2023-10-19T00:05:21;1.00;;;0.80;;
51451;SDS011;37521;52.020;-1.740;2023-10-19T00:07:53;0.75;;;0.75;;
51451;SDS011;37521;52.020;-1.740;2023-10-19T00:10:24;0.57;;;0.40;;
51451;SDS011;37521;52.020;-1.740;2023-10-19T00:12:55;0.40;;;0.40;;
51451;SDS011;37521;52.020;-1.740;2023-10-19T00:15:27;0.30;;;0.30;;
51451;SDS011;37521;52.020;-1.740;2023-10-19T00:17:58;0.32;;;0.32;;
51451;SDS011;37521;52.020;-1.740;2023-10-19T00:20:37;0.40;;;0.40;;
51451;SDS011;37521;52.020;-1.740;2023-10-19T00:23:16;0.17;;;0.17;;
51451;SDS011;37521;52.020;-1.740;2023-10-19T00:25:46;1.17;;;0.60;;
51451;SDS011;37521;52.020;-1.740;2023-10-19T00:28:18;0.28;;;0.22;;
51451;SDS011;37521;52.020;-1.740;2023-10-19T00:30:46;0.88;;;0.45;;
51451;SDS011;37521;52.020;-1.740;2023-10-19T00:33:18;0.30;;;0.30;;
51451;SDS011;37521;52.020;-1.740;2023-10-19T00:35:50;0.30;;;0.30;;
51451;SDS011;37521;52.020;-1.740;2023-10-19T00:38:24;0.20;;;0.20;;
51451;SDS011;37521;52.020;-1.740;2023-10-19T00:41:06;0.50;;;0.50;;
51451;SDS011;37521;52.020;-1.740;2023-10-19T00:43:39;0.28;;;0.28;;
51451;SDS011;37521;52.020;-1.740;2023-10-19T00:46:11;0.45;;;0.40;;
51451;SDS011;37521;52.020;-1.740;2023-10-19T00:48:53;0.32;;;0.30;;
51451;SDS011;37521;52.020;-1.740;2023-10-19T00:51:25;0.32;;;0.32;;
51451;SDS011;37521;52.020;-1.740;2023-10-19T00:54:08;0.55;;;0.30;;
51451;SDS011;37521;52.020;-1.740;2023-10-19T00:56:41;1.75;;;0.90;;
51451;SDS011;37521;52.020;-1.740;2023-10-19T00:59:18;0.35;;;0.35;;
51451;SDS011;37521;52.020;-1.740;2023-10-19T01:01:50;0.40;;;0.40;;
51451;SDS011;37521;52.020;-1.740;2023-10-19T01:04:21;0.80;;;0.25;;
51451;SDS011;37521;52.020;-1.740;2023-10-19T01:06:53;1.67;;;0.28;;
51451;SDS011;37521;52.020;-1.740;2023-10-19T01:09:38;0.40;;;0.40;;
51451;SDS011;37521;52.020;-1.740;2023-10-19T01:12:10;0.20;;;0.20;;
51451;SDS011;37521;52.020;-1.740;2023-10-19T01:15:02;0.60;;;0.50;;
51451;SDS011;37521;52.020;-1.740;2023-10-19T01:17:35;0.40;;;0.20;;
51451;SDS011;37521;52.020;-1.740;2023-10-19T01:20:08;0.47;;;0.40;;
51451;SDS011;37521;52.020;-1.740;2023-10-19T01:22:50;1.55;;;0.40;;
51451;SDS011;37521;52.020;-1.740;2023-10-19T01:25:42;0.20;;;0.20;;
51451;SDS011;37521;52.020;-1.740;2023-10-19T01:28:13;0.52;;;0.40;;
51451;SDS011;37521;52.020;-1.740;2023-10-19T01:30:44;0.30;;;0.22;;
51451;SDS011;37521;52.020;-1.740;2023-10-19T01:33:13;1.75;;;0.60;;
51451;SDS011;37521;52.020;-1.740;2023-10-19T01:35:42;0.40;;;0.40;;
51451;SDS011;37521;52.020;-1.740;2023-10-19T01:38:30;1.27;;;0.30;;
51451;SDS011;37521;52.020;-1.740;2023-10-19T01:40:59;2.75;;;0.28;;
51451;SDS011;37521;52.020;-1.740;2023-10-19T01:43:26;1.45;;;0.20;;
51451;SDS011;37521;52.020;-1.740;2023-10-19T01:45:58;1.42;;;0.25;;
51451;SDS011;37521;52.020;-1.740;2023-10-19T01:48:30;1.60;;;0.50;;
51451;SDS011;37521;52.020;-1.740;2023-10-19T01:51:02;0.65;;;0.20;;
51451;SDS011;37521;52.020;-1.740;2023-10-19T01:53:33;0.10;;;0.10;;
51451;SDS011;37521;52.020;-1.740;2023-10-19T01:56:02;1.27;;;0.20;;
51451;SDS011;37521;52.020;-1.740;2023-10-19T01:58:32;2.83;;;0.20;;
51451;SDS011;37521;52.020;-1.740;2023-10-19T02:01:03;0.45;;;0.30;;
51451;SDS011;37521;52.020;-1.740;2023-10-19T02:03:35;0.00;;;0.00;;
51451;SDS011;37521;52.020;-1.740;2023-10-19T02:06:09;0.40;;;0.38;;
51451;SDS011;37521;52.020;-1.740;2023-10-19T02:08:48;0.45;;;0.32;;
51451;SDS011;37521;52.020;-1.740;2023-10-19T02:11:21;0.28;;;0.10;;
51451;SDS011;37521;52.020;-1.740;2023-10-19T02:13:51;1.33;;;0.13;;
51451;SDS011;37521;52.020;-1.740;2023-10-19T02:16:22;1.13;;;0.20;;
51451;SDS011;37521;52.020;-1.740;2023-10-19T02:18:52;1.40;;;0.20;;
51451;SDS011;37521;52.020;-1.740;2023-10-19T02:21:20;1.70;;;0.15;;
51451;SDS011;37521;52.020;-1.740;2023-10-19T02:23:51;1.00;;;0.10;;
51451;SDS011;37521;52.020;-1.740;2023-10-19T02:26:19;1.13;;;0.30;;
51451;SDS011;37521;52.020;-1.740;2023-10-19T02:28:49;0.25;;;0.25;;
51451;SDS011;37521;52.020;-1.740;2023-10-19T02:31:17;0.40;;;0.40;;
51451;SDS011;37521;52.020;-1.740;2023-10-19T02:33:49;0.50;;;0.20;;
51451;SDS011;37521;52.020;-1.740;2023-10-19T02:36:18;0.20;;;0.20;;
51451;SDS011;37521;52.020;-1.740;2023-10-19T02:38:47;0.10;;;0.10;;
51451;SDS011;37521;52.020;-1.740;2023-10-19T02:41:20;0.22;;;0.20;;
51451;SDS011;37521;52.020;-1.740;2023-10-19T02:43:48;0.60;;;0.10;;
51451;SDS011;37521;52.020;-1.740;2023-10-19T02:46:18;0.13;;;0.10;;
51451;SDS011;37521;52.020;-1.740;2023-10-19T02:48:47;1.75;;;0.22;;
51451;SDS011;37521;52.020;-1.740;2023-10-19T02:51:16;0.30;;;0.30;;
51451;SDS011;37521;52.020;-1.740;2023-10-19T02:53:46;0.45;;;0.20;;
51451;SDS011;37521;52.020;-1.740;2023-10-19T02:56:14;0.98;;;0.30;;
51451;SDS011;37521;52.020;-1.740;2023-10-19T02:58:46;1.08;;;0.45;;
51451;SDS011;37521;52.020;-1.740;2023-10-19T03:01:16;1.38;;;0.50;;
51451;SDS011;37521;52.020;-1.740;2023-10-19T03:03:50;0.68;;;0.52;;
51451;SDS011;37521;52.020;-1.740;2023-10-19T03:06:18;1.05;;;0.30;;
51451;SDS011;37521;52.020;-1.740;2023-10-19T03:08:48;0.38;;;0.38;;
51451;SDS011;37521;52.020;-1.740;2023-10-19T03:11:24;2.55;;;0.40;;
51451;SDS011;37521;52.020;-1.740;2023-10-19T03:13:55;1.95;;;0.93;;
51451;SDS011;37521;52.020;-1.740;2023-10-19T03:16:24;0.65;;;0.20;;
51451;SDS011;37521;52.020;-1.740;2023-10-19T03:18:55;3.08;;;0.50;;
51451;SDS011;37521;52.020;-1.740;2023-10-19T03:21:24;1.40;;;0.55;;
51451;SDS011;37521;52.020;-1.740;2023-10-19T03:23:53;0.43;;;0.30;;
51451;SDS011;37521;52.020;-1.740;2023-10-19T03:26:23;1.80;;;0.47;;
51451;SDS011;37521;52.020;-1.740;2023-10-19T03:28:58;0.75;;;0.50;;
51451;SDS011;37521;52.020;-1.740;2023-10-19T03:31:34;0.38;;;0.38;;
51451;SDS011;37521;52.020;-1.740;2023-10-19T03:34:10;0.45;;;0.45;;
51451;SDS011;37521;52.020;-1.740;2023-10-19T03:36:39;0.63;;;0.30;;
51451;SDS011;37521;52.020;-1.740;2023-10-19T03:39:09;1.00;;;0.52;;
51451;SDS011;37521;52.020;-1.740;2023-10-19T03:41:43;5.97;;;0.73;;
51451;SDS011;37521;52.020;-1.740;2023-10-19T03:44:14;1.00;;;0.60;;
51451;SDS011;37521;52.020;-1.740;2023-10-19T03:46:46;1.25;;;0.68;;
51451;SDS011;37521;52.020;-1.740;2023-10-19T03:49:23;1.23;;;0.85;;
51451;SDS011;37521;52.020;-1.740;2023-10-19T03:51:57;1.42;;;0.73;;
51451;SDS011;37521;52.020;-1.740;2023-10-19T03:54:27;1.10;;;0.65;;
51451;SDS011;37521;52.020;-1.740;2023-10-19T03:56:59;0.50;;;0.50;;
51451;SDS011;37521;52.020;-1.740;2023-10-19T03:59:34;0.50;;;0.50;;
51451;SDS011;37521;52.020;-1.740;2023-10-19T04:02:04;0.77;;;0.77;;
51451;SDS011;37521;52.020;-1.740;2023-10-19T04:04:37;0.93;;;0.73;;
51451;SDS011;37521;52.020;-1.740;2023-10-19T04:07:10;0.50;;;0.50;;
51451;SDS011;37521;52.020;-1.740;2023-10-19T04:09:45;0.63;;;0.57;;
51451;SDS011;37521;52.020;-1.740;2023-10-19T04:12:27;1.00;;;0.80;;
51451;SDS011;37521;52.020;-1.740;2023-10-19T04:14:59;0.80;;;0.77;;
51451;SDS011;37521;52.020;-1.740;2023-10-19T04:17:36;3.40;;;0.75;;
51451;SDS011;37521;52.020;-1.740;2023-10-19T04:20:06;0.98;;;0.60;;
51451;SDS011;37521;52.020;-1.740;2023-10-19T04:22:56;0.85;;;0.57;;
51451;SDS011;37521;52.020;-1.740;2023-10-19T04:25:32;0.60;;;0.60;;
51451;SDS011;37521;52.020;-1.740;2023-10-19T04:28:00;1.02;;;0.77;;
51451;SDS011;37521;52.020;-1.740;2023-10-19T04:30:31;1.05;;;0.80;;
51451;SDS011;37521;52.020;-1.740;2023-10-19T04:33:04;0.70;;;0.70;;
51451;SDS011;37521;52.020;-1.740;2023-10-19T04:35:36;0.70;;;0.70;;
51451;SDS011;37521;52.020;-1.740;2023-10-19T04:38:08;1.60;;;0.73;;
51451;SDS011;37521;52.020;-1.740;2023-10-19T04:40:37;1.48;;;0.88;;
51451;SDS011;37521;52.020;-1.740;2023-10-19T04:43:05;0.68;;;0.40;;
51451;SDS011;37521;52.020;-1.740;2023-10-19T04:45:35;0.93;;;0.60;;
51451;SDS011;37521;52.020;-1.740;2023-10-19T04:48:07;1.75;;;0.88;;
51451;SDS011;37521;52.020;-1.740;2023-10-19T04:50:36;0.93;;;0.50;;
51451;SDS011;37521;52.020;-1.740;2023-10-19T04:53:06;1.05;;;0.85;;
51451;SDS011;37521;52.020;-1.740;2023-10-19T04:55:35;1.27;;;0.52;;
51451;SDS011;37521;52.020;-1.740;2023-10-19T04:58:03;3.17;;;0.80;;
51451;SDS011;37521;52.020;-1.740;2023-10-19T05:00:32;0.70;;;0.57;;
51451;SDS011;37521;52.020;-1.740;2023-10-19T05:03:02;2.47;;;0.50;;
51451;SDS011;37521;52.020;-1.740;2023-10-19T05:05:31;1.48;;;0.75;;
51451;SDS011;37521;52.020;-1.740;2023-10-19T05:07:59;1.35;;;0.55;;
51451;SDS011;37521;52.020;-1.740;2023-10-19T05:10:29;0.88;;;0.88;;
51451;SDS011;37521;52.020;-1.740;2023-10-19T05:12:57;0.47;;;0.47;;
51451;SDS011;37521;52.020;-1.740;2023-10-19T05:15:25;0.32;;;0.30;;
51451;SDS011;37521;52.020;-1.740;2023-10-19T05:17:54;0.88;;;0.50;;
51451;SDS011;37521;52.020;-1.740;2023-10-19T05:20:24;1.08;;;0.68;;
51451;SDS011;37521;52.020;-1.740;2023-10-19T05:22:52;0.52;;;0.50;;
51451;SDS011;37521;52.020;-1.740;2023-10-19T05:25:21;1.05;;;0.60;;
51451;SDS011;37521;52.020;-1.740;2023-10-19T05:27:50;0.35;;;0.20;;
51451;SDS011;37521;52.020;-1.740;2023-10-19T05:30:19;0.50;;;0.30;;
51451;SDS011;37521;52.020;-1.740;2023-10-19T05:32:50;0.52;;;0.40;;
51451;SDS011;37521;52.020;-1.740;2023-10-19T05:35:19;1.20;;;0.63;;
51451;SDS011;37521;52.020;-1.740;2023-10-19T05:37:52;0.47;;;0.40;;
51451;SDS011;37521;52.020;-1.740;2023-10-19T05:40:22;0.20;;;0.20;;
51451;SDS011;37521;52.020;-1.740;2023-10-19T05:42:56;1.10;;;0.40;;
51451;SDS011;37521;52.020;-1.740;2023-10-19T05:45:27;0.35;;;0.35;;
51451;SDS011;37521;52.020;-1.740;2023-10-19T05:47:56;1.55;;;0.20;;
51451;SDS011;37521;52.020;-1.740;2023-10-19T05:50:25;0.47;;;0.30;;
51451;SDS011;37521;52.020;-1.740;2023-10-19T05:52:56;1.98;;;0.30;;
51451;SDS011;37521;52.020;-1.740;2023-10-19T05:55:25;0.60;;;0.30;;
51451;SDS011;37521;52.020;-1.740;2023-10-19T05:57:53;4.13;;;0.60;;
51451;SDS011;37521;52.020;-1.740;2023-10-19T06:00:23;0.43;;;0.40;;
51451;SDS011;37521;52.020;-1.740;2023-10-19T06:02:52;0.75;;;0.50;;
51451;SDS011;37521;52.020;-1.740;2023-10-19T06:05:21;2.55;;;0.73;;
51451;SDS011;37521;52.020;-1.740;2023-10-19T06:07:50;0.90;;;0.35;;
51451;SDS011;37521;52.020;-1.740;2023-10-19T06:10:20;0.70;;;0.25;;
51451;SDS011;37521;52.020;-1.740;2023-10-19T06:12:50;0.98;;;0.30;;
51451;SDS011;37521;52.020;-1.740;2023-10-19T06:15:20;1.50;;;0.50;;
51451;SDS011;37521;52.020;-1.740;2023-10-19T06:17:51;4.45;;;0.77;;
51451;SDS011;37521;52.020;-1.740;2023-10-19T06:20:20;0.30;;;0.30;;
51451;SDS011;37521;52.020;-1.740;2023-10-19T06:22:51;1.10;;;0.55;;
51451;SDS011;37521;52.020;-1.740;2023-10-19T06:25:24;2.33;;;0.60;;
51451;SDS011;37521;52.020;-1.740;2023-10-19T06:27:52;2.05;;;0.68;;
51451;SDS011;37521;52.020;-1.740;2023-10-19T06:30:24;1.95;;;0.47;;
51451;SDS011;37521;52.020;-1.740;2023-10-19T06:32:54;3.53;;;1.08;;
51451;SDS011;37521;52.020;-1.740;2023-10-19T06:35:23;2.85;;;0.50;;
51451;SDS011;37521;52.020;-1.740;2023-10-19T06:37:52;2.42;;;0.47;;
51451;SDS011;37521;52.020;-1.740;2023-10-19T06:40:23;0.43;;;0.43;;
51451;SDS011;37521;52.020;-1.740;2023-10-19T06:42:54;1.45;;;0.60;;
51451;SDS011;37521;52.020;-1.740;2023-10-19T06:45:24;0.45;;;0.35;;
51451;SDS011;37521;52.020;-1.740;2023-10-19T06:47:53;1.02;;;0.65;;
51451;SDS011;37521;52.020;-1.740;2023-10-19T06:50:22;2.28;;;0.40;;
51451;SDS011;37521;52.020;-1.740;2023-10-19T06:52:52;2.53;;;0.35;;
51451;SDS011;37521;52.020;-1.740;2023-10-19T06:55:21;1.23;;;0.88;;
51451;SDS011;37521;52.020;-1.740;2023-10-19T06:57:53;2.30;;;0.45;;
51451;SDS011;37521;52.020;-1.740;2023-10-19T07:00:22;1.30;;;0.55;;
51451;SDS011;37521;52.020;-1.740;2023-10-19T07:02:54;5.55;;;0.95;;
51451;SDS011;37521;52.020;-1.740;2023-10-19T07:05:23;1.17;;;0.70;;
51451;SDS011;37521;52.020;-1.740;2023-10-19T07:07:52;0.75;;;0.38;;
51451;SDS011;37521;52.020;-1.740;2023-10-19T07:10:24;3.03;;;1.30;;
51451;SDS011;37521;52.020;-1.740;2023-10-19T07:12:54;2.75;;;0.68;;
51451;SDS011;37521;52.020;-1.740;2023-10-19T07:15:24;2.03;;;0.95;;
51451;SDS011;37521;52.020;-1.740;2023-10-19T07:17:55;2.70;;;0.77;;
51451;SDS011;37521;52.020;-1.740;2023-10-19T07:20:23;2.10;;;0.52;;
51451;SDS011;37521;52.020;-1.740;2023-10-19T07:22:59;2.33;;;0.60;;
51451;SDS011;37521;52.020;-1.740;2023-10-19T07:25:35;2.22;;;0.90;;
51451;SDS011;37521;52.020;-1.740;2023-10-19T07:28:10;2.10;;;0.90;;
51451;SDS011;37521;52.020;-1.740;2023-10-19T07:30:40;2.90;;;0.73;;
51451;SDS011;37521;52.020;-1.740;2023-10-19T07:33:10;0.85;;;0.68;;
51451;SDS011;37521;52.020;-1.740;2023-10-19T07:35:44;1.05;;;0.75;;
51451;SDS011;37521;52.020;-1.740;2023-10-19T07:38:14;4.13;;;1.13;;
51451;SDS011;37521;52.020;-1.740;2023-10-19T07:40:44;0.73;;;0.52;;
51451;SDS011;37521;52.020;-1.740;2023-10-19T07:43:13;2.35;;;1.02;;
51451;SDS011;37521;52.020;-1.740;2023-10-19T07:45:41;4.22;;;0.77;;
51451;SDS011;37521;52.020;-1.740;2023-10-19T07:48:10;3.92;;;1.05;;
51451;SDS011;37521;52.020;-1.740;2023-10-19T07:50:39;2.75;;;0.70;;
51451;SDS011;37521;52.020;-1.740;2023-10-19T07:53:09;1.00;;;0.88;;
51451;SDS011;37521;52.020;-1.740;2023-10-19T07:55:38;1.40;;;0.90;;
51451;SDS011;37521;52.020;-1.740;2023-10-19T07:58:08;4.22;;;1.25;;
51451;SDS011;37521;52.020;-1.740;2023-10-19T08:00:37;2.58;;;0.85;;
51451;SDS011;37521;52.020;-1.740;2023-10-19T08:03:05;2.33;;;0.80;;
51451;SDS011;37521;52.020;-1.740;2023-10-19T08:05:36;1.08;;;0.88;;
51451;SDS011;37521;52.020;-1.740;2023-10-19T08:08:05;2.63;;;0.80;;
51451;SDS011;37521;52.020;-1.740;2023-10-19T08:10:34;1.45;;;0.85;;
51451;SDS011;37521;52.020;-1.740;2023-10-19T08:13:03;1.63;;;0.68;;
51451;SDS011;37521;52.020;-1.740;2023-10-19T08:15:33;5.43;;;0.80;;
51451;SDS011;37521;52.020;-1.740;2023-10-19T08:18:03;0.77;;;0.55;;
51451;SDS011;37521;52.020;-1.740;2023-10-19T08:20:32;1.38;;;0.70;;
51451;SDS011;37521;52.020;-1.740;2023-10-19T08:23:04;1.52;;;0.35;;
51451;SDS011;37521;52.020;-1.740;2023-10-19T08:25:33;3.78;;;1.02;;
51451;SDS011;37521;52.020;-1.740;2023-10-19T08:28:21;1.15;;;0.82;;
51451;SDS011;37521;52.020;-1.740;2023-10-19T08:30:51;1.08;;;0.35;;
51451;SDS011;37521;52.020;-1.740;2023-10-19T08:33:28;0.82;;;0.55;;
51451;SDS011;37521;52.020;-1.740;2023-10-19T08:36:01;1.88;;;0.82;;
51451;SDS011;37521;52.020;-1.740;2023-10-19T08:38:29;1.52;;;0.82;;
51451;SDS011;37521;52.020;-1.740;2023-10-19T08:40:59;3.30;;;0.60;;
51451;SDS011;37521;52.020;-1.740;2023-10-19T08:43:28;1.70;;;0.65;;
51451;SDS011;37521;52.020;-1.740;2023-10-19T08:46:02;1.48;;;0.68;;
51451;SDS011;37521;52.020;-1.740;2023-10-19T08:48:33;0.75;;;0.60;;
51451;SDS011;37521;52.020;-1.740;2023-10-19T08:51:03;4.07;;;0.73;;
51451;SDS011;37521;52.020;-1.740;2023-10-19T08:53:37;0.98;;;0.55;;
51451;SDS011;37521;52.020;-1.740;2023-10-19T08:56:08;0.82;;;0.55;;
51451;SDS011;37521;52.020;-1.740;2023-10-19T08:58:36;1.40;;;0.65;;
51451;SDS011;37521;52.020;-1.740;2023-10-19T09:01:07;6.97;;;1.38;;
51451;SDS011;37521;52.020;-1.740;2023-10-19T09:03:37;1.80;;;0.50;;
51451;SDS011;37521;52.020;-1.740;2023-10-19T09:06:07;0.32;;;0.32;;
51451;SDS011;37521;52.020;-1.740;2023-10-19T09:08:40;0.47;;;0.35;;
51451;SDS011;37521;52.020;-1.740;2023-10-19T09:11:08;4.97;;;0.75;;
51451;SDS011;37521;52.020;-1.740;2023-10-19T09:13:45;1.27;;;0.82;;
51451;SDS011;37521;52.020;-1.740;2023-10-19T09:16:16;4.15;;;1.13;;
51451;SDS011;37521;52.020;-1.740;2023-10-19T09:18:46;4.35;;;1.17;;
51451;SDS011;37521;52.020;-1.740;2023-10-19T09:21:15;7.45;;;1.05;;
51451;SDS011;37521;52.020;-1.740;2023-10-19T09:23:52;1.67;;;0.65;;
51451;SDS011;37521;52.020;-1.740;2023-10-19T09:26:22;3.20;;;0.77;;
51451;SDS011;37521;52.020;-1.740;2023-10-19T09:28:53;2.47;;;0.55;;
51451;SDS011;37521;52.020;-1.740;2023-10-19T09:31:24;3.70;;;0.90;;
51451;SDS011;37521;52.020;-1.740;2023-10-19T09:33:52;4.63;;;0.77;;
51451;SDS011;37521;52.020;-1.740;2023-10-19T09:36:22;3.17;;;0.65;;
51451;SDS011;37521;52.020;-1.740;2023-10-19T09:38:54;5.38;;;1.27;;
51451;SDS011;37521;52.020;-1.740;2023-10-19T09:41:25;1.88;;;0.80;;
51451;SDS011;37521;52.020;-1.740;2023-10-19T09:43:57;4.63;;;0.95;;
51451;SDS011;37521;52.020;-1.740;2023-10-19T09:46:33;3.05;;;0.85;;
51451;SDS011;37521;52.020;-1.740;2023-10-19T09:49:07;4.68;;;0.95;;
51451;SDS011;37521;52.020;-1.740;2023-10-19T09:51:38;3.45;;;1.08;;
51451;SDS011;37521;52.020;-1.740;2023-10-19T09:54:22;2.65;;;0.55;;
51451;SDS011;37521;52.020;-1.740;2023-10-19T09:57:01;4.05;;;1.08;;
51451;SDS011;37521;52.020;-1.740;2023-10-19T09:59:40;2.08;;;1.20;;
51451;SDS011;37521;52.020;-1.740;2023-10-19T10:02:11;4.30;;;1.52;;
51451;SDS011;37521;52.020;-1.740;2023-10-19T10:04:42;4.23;;;1.37;;
51451;SDS011;37521;52.020;-1.740;2023-10-19T10:07:13;4.03;;;0.75;;
51451;SDS011;37521;52.020;-1.740;2023-10-19T10:09:57;2.50;;;0.60;;
51451;SDS011;37521;52.020;-1.740;2023-10-19T10:12:26;7.00;;;1.08;;
51451;SDS011;37521;52.020;-1.740;2023-10-19T10:14:56;3.05;;;0.82;;
51451;SDS011;37521;52.020;-1.740;2023-10-19T10:17:27;1.63;;;1.10;;
51451;SDS011;37521;52.020;-1.740;2023-10-19T10:20:28;3.22;;;1.27;;
51451;SDS011;37521;52.020;-1.740;2023-10-19T10:25:51;1.75;;;0.75;;
51451;SDS011;37521;52.020;-1.740;2023-10-19T10:28:21;2.25;;;1.10;;
51451;SDS011;37521;52.020;-1.740;2023-10-19T10:31:07;1.58;;;1.02;;
51451;SDS011;37521;52.020;-1.740;2023-10-19T10:33:43;5.05;;;1.20;;
51451;SDS011;37521;52.020;-1.740;2023-10-19T10:36:13;3.25;;;1.38;;
51451;SDS011;37521;52.020;-1.740;2023-10-19T10:38:44;1.23;;;0.70;;
51451;SDS011;37521;52.020;-1.740;2023-10-19T10:41:19;2.50;;;0.77;;
51451;SDS011;37521;52.020;-1.740;2023-10-19T10:43:51;2.90;;;1.55;;
51451;SDS011;37521;52.020;-1.740;2023-10-19T10:46:21;6.97;;;1.65;;
51451;SDS011;37521;52.020;-1.740;2023-10-19T10:48:53;6.85;;;1.35;;
51451;SDS011;37521;52.020;-1.740;2023-10-19T10:51:21;4.82;;;1.30;;
51451;SDS011;37521;52.020;-1.740;2023-10-19T10:53:52;3.78;;;1.23;;
51451;SDS011;37521;52.020;-1.740;2023-10-19T10:56:22;1.85;;;1.02;;
51451;SDS011;37521;52.020;-1.740;2023-10-19T10:58:51;2.63;;;1.58;;
51451;SDS011;37521;52.020;-1.740;2023-10-19T11:01:31;6.40;;;1.00;;
51451;SDS011;37521;52.020;-1.740;2023-10-19T11:04:08;2.42;;;1.33;;
51451;SDS011;37521;52.020;-1.740;2023-10-19T11:06:48;3.67;;;0.93;;
51451;SDS011;37521;52.020;-1.740;2023-10-19T11:09:17;5.03;;;1.27;;
51451;SDS011;37521;52.020;-1.740;2023-10-19T11:11:46;4.88;;;1.20;;
51451;SDS011;37521;52.020;-1.740;2023-10-19T11:14:16;2.40;;;1.08;;
51451;SDS011;37521;52.020;-1.740;2023-10-19T11:16:44;3.20;;;1.00;;
51451;SDS011;37521;52.020;-1.740;2023-10-19T11:19:14;2.97;;;1.58;;
51451;SDS011;37521;52.020;-1.740;2023-10-19T11:21:52;4.15;;;1.30;;
51451;SDS011;37521;52.020;-1.740;2023-10-19T11:24:26;5.57;;;1.27;;
51451;SDS011;37521;52.020;-1.740;2023-10-19T11:26:59;11.15;;;1.48;;
51451;SDS011;37521;52.020;-1.740;2023-10-19T11:29:28;2.63;;;0.95;;
51451;SDS011;37521;52.020;-1.740;2023-10-19T11:31:57;3.60;;;1.30;;
51451;SDS011;37521;52.020;-1.740;2023-10-19T11:34:28;2.88;;;1.20;;
51451;SDS011;37521;52.020;-1.740;2023-10-19T11:36:58;8.40;;;2.53;;
51451;SDS011;37521;52.020;-1.740;2023-10-19T11:39:27;3.47;;;1.33;;
51451;SDS011;37521;52.020;-1.740;2023-10-19T11:41:56;3.75;;;1.40;;
51451;SDS011;37521;52.020;-1.740;2023-10-19T11:44:25;1.60;;;1.25;;
51451;SDS011;37521;52.020;-1.740;2023-10-19T11:46:53;10.70;;;1.60;;
51451;SDS011;37521;52.020;-1.740;2023-10-19T11:49:22;4.25;;;0.80;;
51451;SDS011;37521;52.020;-1.740;2023-10-19T11:51:54;5.95;;;1.50;;
51451;SDS011;37521;52.020;-1.740;2023-10-19T11:54:22;3.15;;;1.52;;
51451;SDS011;37521;52.020;-1.740;2023-10-19T11:56:53;1.95;;;0.82;;
51451;SDS011;37521;52.020;-1.740;2023-10-19T11:59:21;7.07;;;1.92;;
51451;SDS011;37521;52.020;-1.740;2023-10-19T12:01:50;4.50;;;1.25;;
51451;SDS011;37521;52.020;-1.740;2023-10-19T12:04:19;9.98;;;1.65;;
51451;SDS011;37521;52.020;-1.740;2023-10-19T12:06:54;8.00;;;1.17;;
51451;SDS011;37521;52.020;-1.740;2023-10-19T12:09:22;7.95;;;1.55;;
51451;SDS011;37521;52.020;-1.740;2023-10-19T12:11:52;2.65;;;1.38;;
51451;SDS011;37521;52.020;-1.740;2023-10-19T12:14:21;4.25;;;1.70;;
51451;SDS011;37521;52.020;-1.740;2023-10-19T12:16:50;3.33;;;0.98;;
51451;SDS011;37521;52.020;-1.740;2023-10-19T12:19:22;6.70;;;1.65;;
51451;SDS011;37521;52.020;-1.740;2023-10-19T12:21:53;5.07;;;1.95;;
51451;SDS011;37521;52.020;-1.740;2023-10-19T12:24:22;5.97;;;1.73;;
51451;SDS011;37521;52.020;-1.740;2023-10-19T12:26:55;8.82;;;2.00;;
51451;SDS011;37521;52.020;-1.740;2023-10-19T12:29:24;2.53;;;1.67;;
51451;SDS011;37521;52.020;-1.740;2023-10-19T12:31:53;2.20;;;1.00;;
51451;SDS011;37521;52.020;-1.740;2023-10-19T12:34:21;4.47;;;1.52;;
51451;SDS011;37521;52.020;-1.740;2023-10-19T12:36:50;2.80;;;1.50;;
51451;SDS011;37521;52.020;-1.740;2023-10-19T12:39:20;5.05;;;1.20;;
51451;SDS011;37521;52.020;-1.740;2023-10-19T12:42:14;5.22;;;1.58;;
51451;SDS011;37521;52.020;-1.740;2023-10-19T12:44:43;5.15;;;1.75;;
51451;SDS011;37521;52.020;-1.740;2023-10-19T12:47:13;3.42;;;1.90;;
51451;SDS011;37521;52.020;-1.740;2023-10-19T12:49:44;2.88;;;1.90;;
51451;SDS011;37521;52.020;-1.740;2023-10-19T12:52:13;4.93;;;1.85;;
51451;SDS011;37521;52.020;-1.740;2023-10-19T12:54:41;3.08;;;1.40;;
51451;SDS011;37521;52.020;-1.740;2023-10-19T12:57:12;5.88;;;1.67;;
51451;SDS011;37521;52.020;-1.740;2023-10-19T12:59:43;4.07;;;1.65;;
51451;SDS011;37521;52.020;-1.740;2023-10-19T13:02:11;5.20;;;1.80;;
51451;SDS011;37521;52.020;-1.740;2023-10-19T13:04:42;1.55;;;1.40;;
51451;SDS011;37521;52.020;-1.740;2023-10-19T13:07:13;3.65;;;1.25;;
51451;SDS011;37521;52.020;-1.740;2023-10-19T13:09:42;5.25;;;2.22;;
51451;SDS011;37521;52.020;-1.740;2023-10-19T13:12:11;4.30;;;1.60;;
51451;SDS011;37521;52.020;-1.740;2023-10-19T13:14:39;10.57;;;1.88;;
51451;SDS011;37521;52.020;-1.740;2023-10-19T13:17:12;9.63;;;2.20;;
51451;SDS011;37521;52.020;-1.740;2023-10-19T13:19:41;8.70;;;1.58;;
51451;SDS011;37521;52.020;-1.740;2023-10-19T13:22:09;5.18;;;1.60;;
51451;SDS011;37521;52.020;-1.740;2023-10-19T13:24:41;4.13;;;1.60;;
51451;SDS011;37521;52.020;-1.740;2023-10-19T13:27:10;5.35;;;1.85;;
51451;SDS011;37521;52.020;-1.740;2023-10-19T13:29:39;7.80;;;1.85;;
51451;SDS011;37521;52.020;-1.740;2023-10-19T13:32:09;7.68;;;1.70;;
51451;SDS011;37521;52.020;-1.740;2023-10-19T13:34:39;5.05;;;1.38;;
51451;SDS011;37521;52.020;-1.740;2023-10-19T13:37:09;4.43;;;1.98;;
51451;SDS011;37521;52.020;-1.740;2023-10-19T13:39:38;3.78;;;1.23;;
51451;SDS011;37521;52.020;-1.740;2023-10-19T13:42:07;4.28;;;1.45;;
51451;SDS011;37521;52.020;-1.740;2023-10-19T13:44:36;7.45;;;1.35;;
51451;SDS011;37521;52.020;-1.740;2023-10-19T13:47:05;3.88;;;1.55;;
51451;SDS011;37521;52.020;-1.740;2023-10-19T13:49:36;6.70;;;1.70;;
51451;SDS011;37521;52.020;-1.740;2023-10-19T13:52:06;3.55;;;2.25;;
51451;SDS011;37521;52.020;-1.740;2023-10-19T13:54:35;2.08;;;1.30;;
51451;SDS011;37521;52.020;-1.740;2023-10-19T13:57:04;3.25;;;1.15;;
51451;SDS011;37521;52.020;-1.740;2023-10-19T13:59:32;2.67;;;1.30;;
51451;SDS011;37521;52.020;-1.740;2023-10-19T14:02:01;3.60;;;1.50;;
51451;SDS011;37521;52.020;-1.740;2023-10-19T14:04:30;4.85;;;1.17;;
51451;SDS011;37521;52.020;-1.740;2023-10-19T14:06:59;2.88;;;1.33;;
51451;SDS011;37521;52.020;-1.740;2023-10-19T14:09:29;4.65;;;1.30;;
51451;SDS011;37521;52.020;-1.740;2023-10-19T14:11:58;1.70;;;0.98;;
51451;SDS011;37521;52.020;-1.740;2023-10-19T14:14:29;2.35;;;1.10;;
51451;SDS011;37521;52.020;-1.740;2023-10-19T14:16:58;3.90;;;1.33;;
51451;SDS011;37521;52.020;-1.740;2023-10-19T14:19:27;5.53;;;1.30;;
51451;SDS011;37521;52.020;-1.740;2023-10-19T14:21:59;3.63;;;1.40;;
51451;SDS011;37521;52.020;-1.740;2023-10-19T14:24:29;5.05;;;1.33;;
51451;SDS011;37521;52.020;-1.740;2023-10-19T14:26:58;2.70;;;1.30;;
51451;SDS011;37521;52.020;-1.740;2023-10-19T14:29:26;6.25;;;1.45;;
51451;SDS011;37521;52.020;-1.740;2023-10-19T14:31:55;2.60;;;1.30;;
51451;SDS011;37521;52.020;-1.740;2023-10-19T14:34:24;4.70;;;1.67;;
51451;SDS011;37521;52.020;-1.740;2023-10-19T14:36:54;6.85;;;1.90;;
51451;SDS011;37521;52.020;-1.740;2023-10-19T14:39:22;3.95;;;1.52;;
51451;SDS011;37521;52.020;-1.740;2023-10-19T14:41:52;7.43;;;1.38;;
51451;SDS011;37521;52.020;-1.740;2023-10-19T14:44:21;4.38;;;1.50;;
51451;SDS011;37521;52.020;-1.740;2023-10-19T14:46:51;3.63;;;2.13;;
51451;SDS011;37521;52.020;-1.740;2023-10-19T14:49:19;4.03;;;1.38;;
51451;SDS011;37521;52.020;-1.740;2023-10-19T14:51:48;4.20;;;1.38;;
51451;SDS011;37521;52.020;-1.740;2023-10-19T14:54:16;4.38;;;1.42;;
51451;SDS011;37521;52.020;-1.740;2023-10-19T14:56:45;6.00;;;1.55;;
51451;SDS011;37521;52.020;-1.740;2023-10-19T14:59:15;2.15;;;1.15;;